Aviation Digital Data Service (ADDS)

Output produced by METARs form (1837 UTC 22 May 2019)
found at http://aviationweather.gov/metar/data/
 
TAF AMD ETMN 221822Z 2217/2302 30013KT 9999 NSW BKN020 
     BECMG 2217/2218 27006KT 9999 NSW FEW010 SCT025 
     PROB30 2221/2223 23005KT 4000 BR FEW010 SCT240 
     TEMPO 2223/2302 21003KT 3000 MIFG FEW007 SCT240 CANCEL 1900